Time;durP1;ratioP1;P1;durP2;ratioP2;P2;SDS_P1;SDS_P2;PMS_P1;PMS_P2;Temp;Humidity;BMP_temperature;BMP_pressure;BME280_temperature;BME280_humidity;BME280_pressure;Samples;Min_cycle;Max_cycle;Signal;HPM_P1;HPM_P2
2022/05/27 00:01:53;;;;;;;21.15;4.88;;;;;;;14.65;100.00;102018.91;5028506;28;20029;-66
2022/05/27 00:04:18;;;;;;;19.00;4.43;;;;;;;14.51;100.00;102012.34;5029116;28;20048;-66
2022/05/27 00:06:44;;;;;;;24.00;5.07;;;;;;;14.35;100.00;102021.94;5012523;28;20033;-66
2022/05/27 00:09:10;;;;;;;14.73;4.35;;;;;;;14.17;100.00;102021.75;5009081;28;20064;-66
2022/05/27 00:11:35;;;;;;;19.23;5.22;;;;;;;14.04;100.00;102016.06;5014592;28;20072;-65
2022/05/27 00:14:01;;;;;;;19.38;4.32;;;;;;;13.90;100.00;102007.75;5031354;28;20022;-64
2022/05/27 00:16:28;;;;;;;16.48;4.32;;;;;;;13.85;100.00;102007.06;5028320;28;20095;-64
2022/05/27 00:18:54;;;;;;;14.82;3.80;;;;;;;13.74;100.00;102010.16;5027614;28;20021;-65
2022/05/27 00:21:19;;;;;;;13.95;4.43;;;;;;;13.69;100.00;102005.00;5026613;28;20120;-65
2022/05/27 00:23:45;;;;;;;13.93;3.47;;;;;;;13.67;100.00;102012.22;5029776;28;20112;-64
2022/05/27 00:26:10;;;;;;;11.73;3.00;;;;;;;13.67;100.00;102012.22;5020176;28;20033;-65
2022/05/27 00:28:36;;;;;;;10.07;2.75;;;;;;;13.65;100.00;102016.72;5031307;28;20151;-65
2022/05/27 00:31:05;;;;;;;7.63;2.70;;;;;;;13.62;100.00;102006.22;5031022;28;20036;-65
2022/05/27 00:33:31;;;;;;;11.40;3.33;;;;;;;13.58;100.00;102005.44;5015664;28;20033;-65
2022/05/27 00:35:56;;;;;;;10.45;2.75;;;;;;;13.55;100.00;102008.22;5012578;28;20500;-65
2022/05/27 00:38:21;;;;;;;9.05;2.30;;;;;;;13.56;100.00;101998.44;5028853;28;20026;-65
2022/05/27 00:40:50;;;;;;;15.63;2.92;;;;;;;13.57;100.00;101997.53;5028564;28;20032;-65
2022/05/27 00:43:15;;;;;;;12.73;3.25;;;;;;;13.59;100.00;101995.66;5031478;28;20029;-64
2022/05/27 00:45:43;;;;;;;8.60;2.88;;;;;;;13.58;100.00;101999.25;5027574;28;20033;-65
2022/05/27 00:48:19;;;;;;;8.25;2.75;;;;;;;13.58;100.00;102005.44;5014789;28;20022;-65
2022/05/27 00:50:47;;;;;;;13.40;3.15;;;;;;;13.61;100.00;101999.13;5031147;28;20057;-65
2022/05/27 00:53:19;;;;;;;16.45;3.13;;;;;;;13.63;100.00;101997.25;5031545;28;20017;-65
2022/05/27 00:55:48;;;;;;;18.10;3.60;;;;;;;13.65;100.00;101995.44;5005435;28;20018;-64
2022/05/27 00:58:22;;;;;;;12.75;3.55;;;;;;;13.69;100.00;101994.38;5023364;28;20037;-64
2022/05/27 01:00:47;;;;;;;14.82;4.03;;;;;;;13.73;100.00;101989.78;5024828;28;20040;-64
2022/05/27 01:03:15;;;;;;;18.05;4.10;;;;;;;13.73;100.00;101995.13;5027489;28;20037;-64
2022/05/27 01:05:41;;;;;;;22.85;4.95;;;;;;;13.74;100.00;101995.06;5022554;28;20028;-65
2022/05/27 01:08:09;;;;;;;19.88;5.63;;;;;;;13.74;100.00;101988.88;5027804;28;20033;-64
2022/05/27 01:10:56;;;;;;;16.20;4.43;;;;;;;13.72;100.00;101994.25;5026865;28;20030;-64
2022/05/27 01:13:30;;;;;;;24.48;5.72;;;;;;;13.75;100.00;101990.63;5012142;28;20455;-64
2022/05/27 01:16:07;;;;;;;19.92;4.78;;;;;;;13.78;100.00;101990.47;5027347;28;20025;-65
2022/05/27 01:21:45;;;;;;;19.02;4.55;;;;;;;13.83;100.00;101995.63;5029212;28;20095;-65
2022/05/27 01:24:19;;;;;;;23.58;5.80;;;;;;;13.88;100.00;101993.66;5027873;28;20116;-63
2022/05/27 01:27:15;;;;;;;21.00;4.45;;;;;;;13.90;100.00;101992.66;5030467;28;20104;-64
2022/05/27 01:30:14;;;;;;;20.00;4.85;;;;;;;13.96;100.00;101988.00;5024523;28;20290;-64
2022/05/27 01:32:58;;;;;;;21.05;4.65;;;;;;;13.95;100.00;101995.13;5028479;28;20104;-64
2022/05/27 01:35:23;;;;;;;22.30;5.15;;;;;;;13.90;100.00;101987.34;5029081;28;20056;-64
2022/05/27 01:38:05;;;;;;;20.77;4.80;;;;;;;13.93;100.00;101984.53;5012695;28;20092;-64
2022/05/27 01:40:33;;;;;;;27.20;4.72;;;;;;;13.90;100.00;101973.13;5028108;28;20042;-64
2022/05/27 01:43:24;;;;;;;20.75;4.65;;;;;;;13.87;100.00;101987.44;5015065;28;20029;-64
2022/05/27 01:46:14;;;;;;;23.73;4.88;;;;;;;13.88;100.00;101978.53;5026711;28;20025;-64
2022/05/27 01:49:06;;;;;;;19.20;4.03;;;;;;;13.90;100.00;101983.78;5009430;28;20064;-64
2022/05/27 01:51:44;;;;;;;18.30;4.53;;;;;;;13.92;100.00;101976.63;5030794;28;20029;-64
2022/05/27 01:54:26;;;;;;;19.15;4.40;;;;;;;13.93;100.00;101986.34;5018544;28;20018;-64
2022/05/27 01:56:58;;;;;;;19.58;4.75;;;;;;;13.96;100.00;101982.69;5014980;28;20064;-65
2022/05/27 01:59:26;;;;;;;15.75;3.95;;;;;;;13.96;100.00;101985.34;5030138;28;20025;-64
2022/05/27 02:02:04;;;;;;;20.98;4.20;;;;;;;13.92;100.00;101984.59;5012468;28;20039;-64
2022/05/27 02:04:36;;;;;;;20.85;4.10;;;;;;;13.90;100.00;101987.34;5032195;28;20473;-64
2022/05/27 02:07:11;;;;;;;20.05;4.05;;;;;;;13.87;100.00;101966.13;5019439;28;20029;-64
2022/05/27 02:10:01;;;;;;;13.45;3.72;;;;;;;13.80;100.00;101969.13;5027038;28;20550;-63
2022/05/27 02:12:33;;;;;;;17.08;4.00;;;;;;;13.74;100.00;101965.78;5031673;28;20025;-63
2022/05/27 02:15:04;;;;;;;20.52;4.63;;;;;;;13.71;100.00;101968.56;5030384;28;20115;-63
2022/05/27 02:17:37;;;;;;;17.20;3.77;;;;;;;13.68;100.00;101975.81;5025612;28;20040;-63
2022/05/27 02:20:08;;;;;;;17.17;4.28;;;;;;;13.63;100.00;101975.97;5028462;28;20764;-64
2022/05/27 02:22:43;;;;;;;19.63;4.65;;;;;;;13.57;100.00;101986.88;5034223;28;20033;-62
2022/05/27 02:25:14;;;;;;;18.83;4.50;;;;;;;13.53;100.00;101983.47;5026300;28;20100;-63
2022/05/27 02:27:57;;;;;;;17.75;5.28;;;;;;;13.51;100.00;101973.81;5009722;28;20033;-63
2022/05/27 02:30:29;;;;;;;18.15;5.18;;;;;;;13.48;100.00;101974.81;5026791;28;20037;-63
2022/05/27 02:35:49;;;;;;;16.45;4.18;;;;;;;13.40;100.00;101971.56;5026771;28;20048;-63
2022/05/27 02:38:14;;;;;;;16.63;4.05;;;;;;;13.40;100.00;101971.56;5029565;28;20136;-64
2022/05/27 02:41:11;;;;;;;15.88;4.28;;;;;;;13.40;100.00;101976.88;5012358;28;20025;-64
2022/05/27 02:43:58;;;;;;;15.90;3.90;;;;;;;13.37;100.00;101977.00;5031315;28;20488;-64
2022/05/27 02:46:46;;;;;;;13.98;3.70;;;;;;;13.33;100.00;101976.22;5031904;28;20155;-65
2022/05/27 02:49:34;;;;;;;17.33;3.65;;;;;;;13.34;100.00;101972.63;5011996;28;20121;-63
2022/05/27 02:52:21;;;;;;;11.27;3.78;;;;;;;13.41;100.00;101979.50;5029511;28;20033;-63
2022/05/27 02:55:16;;;;;;;11.23;3.47;;;;;;;13.44;100.00;101978.50;5022605;28;20124;-64
2022/05/27 02:57:54;;;;;;;12.52;3.20;;;;;;;13.44;100.00;101986.50;5016456;28;20380;-64
2022/05/27 03:00:21;;;;;;;15.45;3.80;;;;;;;13.42;100.00;101981.22;5027038;28;20033;-64
2022/05/27 03:02:46;;;;;;;16.17;3.63;;;;;;;13.38;100.00;101984.06;5030485;28;20396;-64
2022/05/27 03:05:14;;;;;;;15.55;3.70;;;;;;;13.34;100.00;101975.31;5029248;28;20423;-64
2022/05/27 03:07:51;;;;;;;11.45;3.60;;;;;;;13.32;100.00;101971.81;5017739;28;20358;-64
2022/05/27 03:10:59;;;;;;;12.60;4.68;;;;;;;13.37;100.00;101977.84;5015099;28;20488;-64
2022/05/27 03:14:11;;;;;;;12.73;4.05;;;;;;;13.38;100.00;101973.44;5031442;28;20030;-64
2022/05/27 03:16:58;;;;;;;12.48;3.85;;;;;;;13.41;100.00;101979.50;4945002;28;20445;-65
2022/05/27 03:19:47;;;;;;;16.20;4.15;;;;;;;13.44;100.00;101982.03;5027991;28;20041;-64
2022/05/27 03:22:27;;;;;;;15.15;4.20;;;;;;;13.46;100.00;101984.63;5030868;28;20021;-64
2022/05/27 03:25:04;;;;;;;11.45;3.88;;;;;;;13.47;100.00;101982.84;5026264;28;20040;-64
2022/05/27 03:27:33;;;;;;;17.23;4.68;;;;;;;13.49;100.00;101983.63;5025596;28;20025;-64
2022/05/27 03:30:15;;;;;;;12.32;3.63;;;;;;;13.52;100.00;101979.06;5025207;28;20060;-64
2022/05/27 03:32:58;;;;;;;11.00;3.60;;;;;;;13.56;100.00;101980.69;5027593;28;20071;-64
2022/05/27 03:35:34;;;;;;;11.40;4.30;;;;;;;13.64;100.00;101980.38;5025978;28;20509;-64
2022/05/27 03:38:20;;;;;;;11.85;3.70;;;;;;;13.64;100.00;101985.69;5012023;28;20028;-64
2022/05/27 03:41:08;;;;;;;11.57;3.80;;;;;;;13.66;100.00;101977.66;5009779;28;20117;-64
2022/05/27 03:43:36;;;;;;;16.40;4.05;;;;;;;13.66;100.00;101996.28;5030576;28;20067;-65
2022/05/27 03:46:03;;;;;;;9.63;3.58;;;;;;;13.64;100.00;101998.16;5032977;28;20024;-63
2022/05/27 03:48:29;;;;;;;14.40;3.70;;;;;;;13.64;100.00;102001.66;5010090;28;20033;-63
2022/05/27 03:51:17;;;;;;;14.90;3.78;;;;;;;13.64;100.00;102000.81;5031708;28;20032;-64
2022/05/27 03:56:28;;;;;;;12.13;3.17;;;;;;;13.63;100.00;101989.28;5032755;28;20512;-64
2022/05/27 03:58:53;;;;;;;12.15;3.00;;;;;;;13.62;100.00;101994.66;5036000;28;20045;-64
2022/05/27 04:01:29;;;;;;;8.80;3.15;;;;;;;13.60;100.00;101997.41;5028649;28;20030;-64
2022/05/27 04:03:55;;;;;;;12.48;2.80;;;;;;;13.55;100.00;101997.56;5012990;28;20037;-64
2022/05/27 04:06:21;;;;;;;8.65;2.88;;;;;;;13.54;100.00;102000.28;5029943;28;20401;-64
2022/05/27 04:08:46;;;;;;;14.50;2.83;;;;;;;13.55;100.00;102002.03;5002289;28;20492;-64
2022/05/27 04:11:11;;;;;;;9.65;2.53;;;;;;;13.61;100.00;102001.81;5020250;28;20121;-64
2022/05/27 04:13:38;;;;;;;10.50;2.60;;;;;;;13.62;100.00;102002.66;5029958;28;20033;-64
2022/05/27 04:16:04;;;;;;;12.23;2.65;;;;;;;13.62;100.00;102002.66;5025549;28;20084;-64
2022/05/27 04:18:29;;;;;;;11.45;2.97;;;;;;;13.59;100.00;102001.88;5026595;28;20029;-64
2022/05/27 04:20:54;;;;;;;9.13;2.83;;;;;;;13.59;100.00;101999.22;5029037;28;20485;-64
2022/05/27 04:23:20;;;;;;;9.80;2.45;;;;;;;13.58;100.00;102002.78;5006923;28;20040;-64
2022/05/27 04:25:49;;;;;;;9.23;2.95;;;;;;;13.62;100.00;102005.31;5027405;28;20509;-65
2022/05/27 04:28:16;;;;;;;8.60;2.53;;;;;;;13.59;100.00;101993.00;5027463;28;20033;-65
2022/05/27 04:30:42;;;;;;;8.80;2.90;;;;;;;13.63;100.00;101999.06;5027971;28;20454;-65
2022/05/27 04:33:08;;;;;;;8.20;2.50;;;;;;;13.65;100.00;101999.88;5013529;28;20108;-65
2022/05/27 04:35:34;;;;;;;12.88;2.80;;;;;;;13.67;100.00;101996.25;5013371;28;20049;-64
2022/05/27 04:37:59;;;;;;;7.95;2.50;;;;;;;13.71;100.00;102008.50;5030879;28;20473;-64
2022/05/27 04:40:25;;;;;;;8.48;2.47;;;;;;;13.76;100.00;102003.84;5011511;28;20042;-64
2022/05/27 04:42:50;;;;;;;7.13;2.65;;;;;;;13.79;100.00;102005.53;4992873;28;20037;-65
2022/05/27 04:45:15;;;;;;;8.35;2.55;;;;;;;13.89;100.00;102014.03;5000475;28;20034;-65
2022/05/27 04:47:41;;;;;;;11.23;2.78;;;;;;;13.96;100.00;102022.63;5023284;28;20031;-65
2022/05/27 04:50:10;;;;;;;10.45;2.70;;;;;;;13.99;100.00;102020.72;5023673;28;20032;-65
2022/05/27 04:52:35;;;;;;;8.20;2.72;;;;;;;14.07;100.00;102026.59;5026008;28;20465;-65
2022/05/27 04:55:03;;;;;;;9.00;2.90;;;;;;;14.19;100.00;102022.53;5028284;28;20036;-65
2022/05/27 04:57:34;;;;;;;10.52;2.72;;;;;;;14.36;100.00;102032.53;5019312;28;20041;-64
2022/05/27 05:00:04;;;;;;;10.40;2.40;;;;;;;14.44;100.00;102029.53;5026575;28;20503;-64
2022/05/27 05:02:30;;;;;;;10.10;2.60;;;;;;;14.42;100.00;102021.63;5027857;28;20048;-64
2022/05/27 05:04:56;;;;;;;7.57;2.63;;;;;;;14.41;100.00;102026.97;5028339;28;20030;-64
2022/05/27 05:07:24;;;;;;;12.63;2.78;;;;;;;14.35;100.00;102030.78;5028112;28;20013;-64
2022/05/27 05:09:49;;;;;;;11.20;2.70;;;;;;;14.36;100.00;102029.88;5029220;28;20033;-64
2022/05/27 05:12:15;;;;;;;10.48;3.35;;;;;;;14.30;100.00;102023.94;5026978;28;20366;-65
2022/05/27 05:14:41;;;;;;;9.85;2.70;;;;;;;14.24;100.00;102041.88;5027313;28;20067;-65
2022/05/27 05:17:07;;;;;;;9.60;2.72;;;;;;;14.24;100.00;102046.34;5026711;28;20025;-65
2022/05/27 05:19:34;;;;;;;11.23;2.72;;;;;;;14.30;100.00;102051.44;5009646;28;20099;-65
2022/05/27 05:21:59;;;;;;;6.63;2.60;;;;;;;14.36;100.00;102047.63;5029970;28;20120;-65
2022/05/27 05:24:25;;;;;;;11.82;3.25;;;;;;;14.33;100.00;102045.09;5009430;28;20132;-65
2022/05/27 05:26:50;;;;;;;8.85;2.60;;;;;;;14.36;100.00;102053.84;5010745;28;20041;-65
2022/05/27 05:29:16;;;;;;;9.82;2.60;;;;;;;14.36;100.00;102051.19;5029184;28;20034;-64
2022/05/27 05:31:42;;;;;;;7.75;2.70;;;;;;;14.40;100.00;102058.09;5023077;28;20033;-65
2022/05/27 05:34:07;;;;;;;11.32;2.80;;;;;;;14.21;100.00;102065.13;5023173;28;20050;-65
2022/05/27 05:36:34;;;;;;;7.65;2.83;;;;;;;14.20;100.00;102061.59;5016486;28;20026;-65
2022/05/27 05:39:01;;;;;;;9.88;2.88;;;;;;;14.26;100.00;102060.47;5031126;28;20438;-65
2022/05/27 05:41:32;;;;;;;9.30;2.60;;;;;;;14.33;100.00;102066.41;5032399;28;20079;-65
2022/05/27 05:43:58;;;;;;;8.52;2.90;;;;;;;14.40;100.00;102067.91;5033114;28;20036;-63
2022/05/27 05:46:24;;;;;;;8.55;2.67;;;;;;;14.37;99.67;102068.03;5028350;28;20065;-64
2022/05/27 05:48:50;;;;;;;9.20;2.58;;;;;;;14.46;99.18;102064.13;5016363;28;20029;-65
2022/05/27 05:51:15;;;;;;;7.50;2.53;;;;;;;14.47;96.78;102064.03;5033710;28;20040;-64
2022/05/27 05:53:41;;;;;;;10.27;2.42;;;;;;;14.61;96.93;102073.28;5033626;28;20104;-63
2022/05/27 05:56:06;;;;;;;11.45;2.50;;;;;;;14.66;95.27;102073.97;5034572;28;20058;-63
2022/05/27 05:58:32;;;;;;;9.30;2.50;;;;;;;14.62;94.45;102080.34;5029221;28;20033;-62
2022/05/27 06:00:58;;;;;;;10.90;2.90;;;;;;;14.63;94.62;102082.94;5014004;28;20034;-62
2022/05/27 06:03:24;;;;;;;10.63;3.00;;;;;;;14.53;93.75;102085.13;5033516;28;20370;-61
2022/05/27 06:05:51;;;;;;;11.32;2.75;;;;;;;14.59;94.34;102084.88;5032881;28;20033;-61
2022/05/27 06:08:18;;;;;;;12.65;3.05;;;;;;;14.53;94.04;102078.94;5015315;28;20033;-63
2022/05/27 06:10:44;;;;;;;10.95;2.80;;;;;;;14.75;93.40;102090.44;5008386;28;20025;-63
2022/05/27 06:13:09;;;;;;;9.90;2.70;;;;;;;14.83;93.15;102086.59;4998955;28;20037;-64
2022/05/27 06:15:35;;;;;;;11.10;2.53;;;;;;;14.85;94.32;102082.91;5026696;28;20036;-64
2022/05/27 06:18:00;;;;;;;8.63;2.70;;;;;;;14.89;94.97;102083.66;5035567;28;20033;-64
2022/05/27 06:20:26;;;;;;;10.95;2.60;;;;;;;14.88;94.27;102077.44;5033303;28;20037;-64
2022/05/27 06:22:52;;;;;;;7.82;2.50;;;;;;;14.99;94.00;102084.13;5014410;28;20508;-64
2022/05/27 06:25:17;;;;;;;9.25;2.60;;;;;;;14.90;90.48;102091.59;5016346;28;20040;-64
2022/05/27 06:27:42;;;;;;;8.07;2.58;;;;;;;14.91;88.71;102090.66;5015232;28;20025;-64
2022/05/27 06:35:37;;;;;;;11.45;3.38;;;;;;;15.12;85.98;102104.00;5018846;28;20448;-64
2022/05/27 06:38:03;;;;;;;9.55;2.33;;;;;;;15.27;85.19;102113.13;4999023;28;20029;-64
2022/05/27 06:40:29;;;;;;;10.25;2.65;;;;;;;15.27;81.90;102101.56;5033946;28;20029;-64
2022/05/27 06:42:55;;;;;;;8.23;2.50;;;;;;;15.22;70.14;102126.66;5015461;28;20522;-64
2022/05/27 06:45:20;;;;;;;8.82;2.47;;;;;;;15.36;68.78;102118.06;5031759;28;20072;-64
2022/05/27 06:47:46;;;;;;;9.20;2.70;;;;;;;15.48;68.61;102124.63;5031505;28;20071;-64
2022/05/27 06:50:11;;;;;;;8.60;2.40;;;;;;;15.43;66.53;102129.31;5031522;28;20029;-64
2022/05/27 06:52:37;;;;;;;8.27;2.53;;;;;;;15.34;66.69;102127.91;5017181;28;20056;-63
2022/05/27 06:55:03;;;;;;;6.43;2.10;;;;;;;15.52;67.95;102125.38;4995956;28;20030;-64
2022/05/27 06:57:29;;;;;;;9.95;2.45;;;;;;;15.71;67.37;102130.75;4996767;28;20132;-63
2022/05/27 06:59:54;;;;;;;10.20;2.65;;;;;;;15.84;68.42;102134.63;5030941;28;20017;-63
2022/05/27 07:02:22;;;;;;;9.77;2.42;;;;;;;15.99;70.17;102142.84;5030502;28;20033;-63
2022/05/27 07:04:47;;;;;;;9.55;2.80;;;;;;;16.01;69.29;102140.97;5012176;28;20057;-63
2022/05/27 07:07:13;;;;;;;11.63;2.28;;;;;;;15.75;66.17;102144.81;5013538;28;20069;-63
2022/05/27 07:09:38;;;;;;;9.00;2.53;;;;;;;15.70;66.18;102140.56;5030626;28;20021;-63
2022/05/27 07:12:09;;;;;;;9.90;2.83;;;;;;;15.52;66.08;102142.25;5029510;28;20029;-64
2022/05/27 07:14:36;;;;;;;10.75;2.70;;;;;;;15.45;67.52;102132.78;5012781;28;20473;-63
2022/05/27 07:17:02;;;;;;;10.90;2.95;;;;;;;15.42;67.82;102140.91;5036418;28;20032;-64
2022/05/27 07:19:28;;;;;;;12.68;2.97;;;;;;;15.52;68.20;102131.56;5038088;28;20029;-64
2022/05/27 07:21:56;;;;;;;9.73;2.70;;;;;;;15.72;65.43;102149.34;5031744;28;20088;-63
2022/05/27 07:24:22;;;;;;;12.38;2.90;;;;;;;16.07;64.23;102154.03;5012146;28;20481;-64
2022/05/27 07:26:47;;;;;;;14.63;2.83;;;;;;;16.15;63.88;102143.88;5030536;28;20519;-63
2022/05/27 07:29:13;;;;;;;12.68;2.95;;;;;;;16.24;65.36;102141.69;5030463;28;20029;-63
2022/05/27 07:31:40;;;;;;;12.65;2.50;;;;;;;16.03;64.39;102144.44;5030308;28;20034;-63
2022/05/27 07:34:06;;;;;;;11.82;2.60;;;;;;;16.07;64.48;102151.34;5030370;28;20049;-63
2022/05/27 07:36:31;;;;;;;11.05;3.03;;;;;;;16.08;66.46;102163.78;5030763;28;20045;-64
2022/05/27 07:38:57;;;;;;;12.43;2.60;;;;;;;16.18;65.54;102162.41;5030097;28;20437;-64
2022/05/27 07:41:23;;;;;;;12.35;2.70;;;;;;;16.30;66.12;102157.44;4995511;28;20047;-63
2022/05/27 07:43:49;;;;;;;13.32;2.90;;;;;;;16.36;66.95;102157.13;5030244;28;20034;-64
2022/05/27 07:46:16;;;;;;;12.18;2.70;;;;;;;16.58;67.60;102154.28;5030183;28;20167;-63
2022/05/27 07:48:42;;;;;;;13.10;2.72;;;;;;;16.77;67.61;102162.25;5029445;28;20034;-63
2022/05/27 07:51:08;;;;;;;12.70;3.13;;;;;;;16.84;67.08;102162.81;5030143;28;20033;-63
2022/05/27 07:53:35;;;;;;;14.27;2.90;;;;;;;16.77;66.64;102161.41;5023260;28;20052;-63
2022/05/27 07:56:05;;;;;;;12.57;2.53;;;;;;;16.53;68.31;102159.88;5024846;28;20029;-63
2022/05/27 07:58:31;;;;;;;13.25;3.00;;;;;;;16.52;70.75;102162.59;5027620;28;20029;-63
2022/05/27 08:00:56;;;;;;;14.23;3.53;;;;;;;16.68;68.05;102174.25;5024751;28;20029;-64
2022/05/27 08:03:22;;;;;;;9.43;2.40;;;;;;;16.88;65.22;102181.31;5029163;28;20084;-64
2022/05/27 08:05:47;;;;;;;11.57;3.33;;;;;;;16.79;62.35;102178.22;5012401;28;20030;-64
2022/05/27 08:08:14;;;;;;;9.35;3.03;;;;;;;16.31;60.37;102189.41;5029093;28;20072;-64
2022/05/27 08:10:40;;;;;;;11.77;2.88;;;;;;;16.13;59.39;102184.97;5030014;28;20026;-64
2022/05/27 08:13:07;;;;;;;10.48;2.95;;;;;;;16.10;60.13;102182.41;5030127;28;20029;-65
2022/05/27 08:15:33;;;;;;;11.23;2.78;;;;;;;16.16;60.70;102176.78;5029961;28;20075;-64
2022/05/27 08:17:58;;;;;;;12.07;2.78;;;;;;;16.08;59.30;102181.63;5029535;28;20047;-64
2022/05/27 08:20:27;;;;;;;11.75;2.90;;;;;;;15.86;60.82;102177.28;5030190;28;20412;-64
2022/05/27 08:22:53;;;;;;;12.52;2.78;;;;;;;15.88;58.01;102176.28;5012101;28;20535;-64
2022/05/27 08:25:21;;;;;;;9.20;2.92;;;;;;;15.89;60.88;102180.69;5029580;28;20025;-62
2022/05/27 08:27:46;;;;;;;10.85;3.00;;;;;;;16.08;59.97;102181.63;5029900;28;20030;-64
2022/05/27 08:30:16;;;;;;;10.50;2.60;;;;;;;16.10;60.12;102190.44;5011801;28;20095;-64
2022/05/27 08:32:41;;;;;;;13.48;2.80;;;;;;;16.22;61.28;102189.88;5029775;28;20030;-64
2022/05/27 08:38:02;;;;;;;14.50;3.10;;;;;;;16.68;58.73;102187.63;5021601;28;20051;-63
2022/05/27 08:40:36;;;;;;;10.52;3.00;;;;;;;17.61;53.61;102187.44;5037716;28;20029;-63
2022/05/27 08:43:04;;;;;;;13.38;3.30;;;;;;;17.63;53.80;102202.47;5030027;28;20040;-64
2022/05/27 08:45:36;;;;;;;11.55;2.80;;;;;;;17.12;54.42;102191.75;5025891;28;20404;-64
2022/05/27 08:48:07;;;;;;;14.57;3.10;;;;;;;17.13;56.52;102201.50;5027646;28;20385;-64
2022/05/27 08:50:42;;;;;;;11.88;2.78;;;;;;;17.56;52.82;102201.09;5010784;28;20025;-62
2022/05/27 08:53:46;;;;;;;15.35;3.00;;;;;;;19.28;48.21;102199.59;5030199;28;20022;-63
2022/05/27 08:59:44;;;;;;;14.18;3.25;;;;;;;19.22;45.17;102216.94;5022425;28;20099;-64
2022/05/27 09:02:08;;;;;;;10.93;3.05;;;;;;;19.70;43.52;102229.31;5028657;28;20065;-64
2022/05/27 09:04:48;;;;;;;13.38;3.30;;;;;;;18.88;46.00;102231.47;5035385;28;20072;-62
2022/05/27 09:07:24;;;;;;;12.13;2.92;;;;;;;17.67;48.18;102216.59;5016615;28;20022;-64
2022/05/27 09:09:50;;;;;;;13.35;3.13;;;;;;;18.07;48.93;102213.59;5034111;28;20481;-63
2022/05/27 09:12:40;;;;;;;15.63;2.97;;;;;;;18.28;48.55;102225.84;5034963;28;20036;-63
2022/05/27 09:15:41;;;;;;;11.00;2.80;;;;;;;17.89;49.62;102232.41;5016387;28;20033;-60
2022/05/27 09:18:35;;;;;;;15.20;3.45;;;;;;;17.04;53.64;102234.09;4973712;28;20052;-63
2022/05/27 09:21:03;;;;;;;15.23;3.53;;;;;;;18.04;51.84;102227.19;4975049;28;20471;-64
2022/05/27 09:23:39;;;;;;;14.60;3.60;;;;;;;18.16;51.50;102221.16;5034253;28;20040;-63
2022/05/27 09:26:09;;;;;;;14.10;3.25;;;;;;;18.57;49.88;102214.41;5017061;28;20033;-64
2022/05/27 09:28:40;;;;;;;14.73;2.90;;;;;;;19.27;48.44;102224.72;5014093;28;20505;-63
2022/05/27 09:31:07;;;;;;;;;;;;;;;20.07;46.91;102230.59;5031732;28;20075;-62
2022/05/27 09:33:35;;;;;;;12.90;3.33;;;;;;;20.62;42.80;102239.63;5016422;28;19909;-63
2022/05/27 09:36:14;;;;;;;13.55;3.50;;;;;;;20.25;42.38;102230.41;5030774;28;20100;-63
2022/05/27 09:38:55;;;;;;;15.07;3.28;;;;;;;20.09;44.62;102233.19;5024101;28;20129;-63
2022/05/27 09:41:34;;;;;;;14.18;3.63;;;;;;;19.32;46.51;102225.31;5034465;28;20032;-63
2022/05/27 09:44:34;;;;;;;11.88;3.10;;;;;;;20.05;45.21;102235.22;5030626;28;20033;-64
2022/05/27 09:47:02;;;;;;;14.63;3.42;;;;;;;19.89;44.33;102227.25;5024313;28;20476;-64
2022/05/27 09:49:27;;;;;;;13.15;3.70;;;;;;;19.64;45.73;102233.22;5019851;28;20042;-64
2022/05/27 09:51:53;;;;;;;10.95;3.22;;;;;;;18.93;49.02;102240.16;4997294;28;20017;-64
2022/05/27 09:54:27;;;;;;;14.85;3.63;;;;;;;18.49;51.43;102239.00;5033272;28;20029;-64
2022/05/27 09:57:16;;;;;;;19.23;3.78;;;;;;;18.27;51.02;102244.69;5024635;28;20033;-62
2022/05/27 09:59:47;;;;;;;19.63;3.70;;;;;;;18.51;50.12;102243.31;5031074;28;20410;-63
2022/05/27 10:02:18;;;;;;;15.82;4.20;;;;;;;19.14;48.15;102252.31;5012985;28;20535;-63
2022/05/27 10:04:54;;;;;;;13.10;3.53;;;;;;;18.45;47.49;102246.38;5032883;28;20112;-64
2022/05/27 10:07:33;;;;;;;13.30;3.55;;;;;;;18.51;48.01;102250.50;5014794;28;20433;-65
2022/05/27 10:10:25;;;;;;;10.63;3.17;;;;;;;18.54;48.01;102249.47;5016407;28;20102;-63
2022/05/27 10:12:51;;;;;;;14.48;3.50;;;;;;;18.22;51.24;102257.50;5027285;28;20021;-63
2022/05/27 10:15:38;;;;;;;15.98;3.65;;;;;;;17.79;51.59;102266.00;5024490;28;20033;-63
2022/05/27 10:18:15;;;;;;;14.38;3.80;;;;;;;17.55;55.07;102254.75;5016374;28;20029;-62
2022/05/27 10:20:42;;;;;;;14.55;3.40;;;;;;;18.27;52.01;102252.75;5048335;28;20498;-63
2022/05/27 10:23:11;;;;;;;15.23;3.15;;;;;;;19.55;43.21;102247.22;5033322;28;20048;-63
2022/05/27 10:25:45;;;;;;;13.52;3.10;;;;;;;19.31;43.06;102251.31;5034093;28;20076;-64
2022/05/27 10:28:28;;;;;;;13.95;3.10;;;;;;;19.59;44.50;102257.72;5033651;28;20037;-63
2022/05/27 10:31:04;;;;;;;13.25;3.60;;;;;;;20.04;40.50;102265.75;5032396;28;20056;-64
2022/05/27 10:33:43;;;;;;;10.73;2.75;;;;;;;20.20;39.76;102262.94;5033698;28;20028;-63
2022/05/27 10:36:40;;;;;;;11.00;3.20;;;;;;;20.18;39.63;102270.28;5032304;28;20128;-63
2022/05/27 10:39:28;;;;;;;12.40;3.00;;;;;;;20.53;38.69;102269.84;5030596;28;20079;-63
2022/05/27 10:42:13;;;;;;;13.85;3.33;;;;;;;21.43;38.95;102258.56;5003426;28;20428;-64
2022/05/27 10:45:22;;;;;;;10.68;2.72;;;;;;;20.88;38.47;102279.31;5009604;28;20564;-64
2022/05/27 10:48:11;;;;;;;13.32;3.30;;;;;;;19.93;40.21;102293.28;5023334;28;20040;-64
2022/05/27 10:50:46;;;;;;;10.13;2.97;;;;;;;19.59;40.57;102279.22;5014669;28;20088;-64
2022/05/27 10:53:34;;;;;;;11.48;2.70;;;;;;;19.89;40.75;102277.47;5030202;28;20155;-64
2022/05/27 10:56:22;;;;;;;11.50;2.92;;;;;;;20.65;39.71;102281.63;5015826;28;20052;-62
2022/05/27 11:02:30;;;;;;;9.50;2.77;;;;;;;20.08;38.81;102291.50;5017648;28;20048;-64
2022/05/27 11:05:32;;;;;;;9.40;3.08;;;;;;;19.97;37.40;102283.22;5027389;28;20382;-64
2022/05/27 11:08:19;;;;;;;9.50;2.38;;;;;;;19.44;38.24;102289.03;5031825;28;20021;-63
2022/05/27 11:10:50;;;;;;;8.18;2.45;;;;;;;19.33;38.69;102283.44;5031941;28;20025;-63
2022/05/27 11:17:00;;;;;;;10.70;2.53;;;;;;;21.57;35.07;102298.97;5027203;28;20102;-63
2022/05/27 11:19:47;;;;;;;11.50;2.63;;;;;;;21.79;34.02;102299.28;5032442;28;20040;-63
2022/05/27 11:22:35;;;;;;;10.48;2.35;;;;;;;20.79;35.70;102300.50;5014296;28;20048;-63
2022/05/27 11:25:12;;;;;;;11.13;2.70;;;;;;;21.31;35.52;102302.53;5013876;28;20385;-63
2022/05/27 11:27:50;;;;;;;10.35;3.13;;;;;;;21.43;38.02;102305.25;5032095;28;20052;-63
2022/05/27 11:30:41;;;;;;;9.38;2.70;;;;;;;22.21;36.44;102310.72;5031416;28;20408;-64
2022/05/27 11:33:14;;;;;;;9.75;2.80;;;;;;;21.03;39.31;102305.22;5006956;28;20041;-64
2022/05/27 11:35:52;;;;;;;11.43;3.15;;;;;;;21.16;36.05;102313.34;5014344;28;20041;-64
2022/05/27 11:38:25;;;;;;;11.02;2.25;;;;;;;21.67;35.58;102301.00;5030053;28;20034;-64
2022/05/27 11:41:23;;;;;;;9.63;2.78;;;;;;;20.06;38.33;102314.91;5031468;28;20064;-64
2022/05/27 11:44:01;;;;;;;10.75;2.05;;;;;;;19.98;35.27;102318.06;5034015;28;20044;-64
2022/05/27 11:46:35;;;;;;;11.73;2.80;;;;;;;19.71;36.06;102306.31;5031643;28;20108;-63
2022/05/27 11:49:30;;;;;;;11.95;2.80;;;;;;;19.62;37.39;102313.94;5031226;28;20060;-64
2022/05/27 11:52:25;;;;;;;10.20;2.33;;;;;;;19.71;36.92;102307.16;5031347;28;20025;-64
2022/05/27 11:55:12;;;;;;;10.90;2.30;;;;;;;19.11;38.59;102302.63;5012462;28;20064;-64
2022/05/27 11:57:58;;;;;;;10.52;2.55;;;;;;;18.81;39.39;102311.44;5025911;28;20025;-64
2022/05/27 12:00:27;;;;;;;10.70;2.70;;;;;;;19.42;40.32;102304.38;5037801;28;20029;-63
2022/05/27 12:03:04;;;;;;;13.55;2.83;;;;;;;19.57;38.88;102315.19;5035574;28;20025;-62
2022/05/27 12:05:55;;;;;;;10.65;3.00;;;;;;;19.84;38.62;102317.22;5031851;28;20033;-63
2022/05/27 12:08:45;;;;;;;10.43;2.90;;;;;;;20.63;37.98;102319.41;5021442;28;20037;-64